sensor_id;sensor_type;location;lat;lon;timestamp;P1;P2;P0
51320;PMS5003;38732;49.556;6.286;2023-02-01T00:00:55;25.75;23.00;15.00
51320;PMS5003;38732;49.556;6.286;2023-02-01T00:03:23;26.00;24.25;15.50
51320;PMS5003;38732;49.556;6.286;2023-02-01T00:05:55;12.50;8.25;6.75
51320;PMS5003;38732;49.556;6.286;2023-02-01T00:08:24;30.60;23.00;11.00
51320;PMS5003;38732;49.556;6.286;2023-02-01T00:11:02;27.25;24.00;12.00
51320;PMS5003;38732;49.556;6.286;2023-02-01T00:13:36;28.60;25.60;12.00
51320;PMS5003;38732;49.556;6.286;2023-02-01T00:16:16;25.40;22.80;15.00
51320;PMS5003;38732;49.556;6.286;2023-02-01T00:18:47;23.40;20.00;10.40
51320;PMS5003;38732;49.556;6.286;2023-02-01T00:21:18;23.20;19.40;12.00
51320;PMS5003;38732;49.556;6.286;2023-02-01T00:23:50;23.40;20.40;12.00
51320;PMS5003;38732;49.556;6.286;2023-02-01T00:26:40;21.75;20.00;12.75
51320;PMS5003;38732;49.556;6.286;2023-02-01T00:29:15;25.60;22.80;12.00
51320;PMS5003;38732;49.556;6.286;2023-02-01T00:31:45;30.80;22.20;13.40
51320;PMS5003;38732;49.556;6.286;2023-02-01T00:34:15;28.60;25.60;11.40
51320;PMS5003;38732;49.556;6.286;2023-02-01T00:36:44;22.40;21.20;12.00
51320;PMS5003;38732;49.556;6.286;2023-02-01T00:39:13;24.40;22.00;9.40
51320;PMS5003;38732;49.556;6.286;2023-02-01T00:41:42;29.75;23.00;15.00
51320;PMS5003;38732;49.556;6.286;2023-02-01T00:44:10;26.75;23.00;12.50
51320;PMS5003;38732;49.556;6.286;2023-02-01T00:46:38;22.75;22.00;12.25
51320;PMS5003;38732;49.556;6.286;2023-02-01T00:49:07;16.50;16.50;9.50
51320;PMS5003;38732;49.556;6.286;2023-02-01T00:51:35;30.75;21.75;12.00
51320;PMS5003;38732;49.556;6.286;2023-02-01T00:54:03;28.00;21.50;11.00
51320;PMS5003;38732;49.556;6.286;2023-02-01T00:56:31;23.50;22.50;12.00
51320;PMS5003;38732;49.556;6.286;2023-02-01T00:59:00;36.75;25.00;11.00
51320;PMS5003;38732;49.556;6.286;2023-02-01T01:01:28;22.75;19.50;8.00
51320;PMS5003;38732;49.556;6.286;2023-02-01T01:03:57;24.25;19.75;15.25
51320;PMS5003;38732;49.556;6.286;2023-02-01T01:06:28;27.20;25.20;16.40
51320;PMS5003;38732;49.556;6.286;2023-02-01T01:08:58;25.80;21.80;12.40
51320;PMS5003;38732;49.556;6.286;2023-02-01T01:11:29;19.80;16.60;5.20
51320;PMS5003;38732;49.556;6.286;2023-02-01T01:13:59;31.40;23.20;14.20
51320;PMS5003;38732;49.556;6.286;2023-02-01T01:16:29;23.00;20.00;11.60
51320;PMS5003;38732;49.556;6.286;2023-02-01T01:18:58;28.20;21.60;13.80
51320;PMS5003;38732;49.556;6.286;2023-02-01T01:21:27;26.50;20.25;12.50
51320;PMS5003;38732;49.556;6.286;2023-02-01T01:23:56;38.20;27.60;12.80
51320;PMS5003;38732;49.556;6.286;2023-02-01T01:26:25;32.25;22.00;10.50
51320;PMS5003;38732;49.556;6.286;2023-02-01T01:28:56;31.00;26.40;14.20
51320;PMS5003;38732;49.556;6.286;2023-02-01T01:31:25;27.60;22.60;13.00
51320;PMS5003;38732;49.556;6.286;2023-02-01T01:33:55;25.00;23.00;13.20
51320;PMS5003;38732;49.556;6.286;2023-02-01T01:36:25;31.00;27.20;16.00
51320;PMS5003;38732;49.556;6.286;2023-02-01T01:38:55;28.60;23.20;15.00
51320;PMS5003;38732;49.556;6.286;2023-02-01T01:41:25;28.00;23.25;12.25
51320;PMS5003;38732;49.556;6.286;2023-02-01T01:43:57;18.00;17.60;11.20
51320;PMS5003;38732;49.556;6.286;2023-02-01T01:46:28;27.20;23.00;13.00
51320;PMS5003;38732;49.556;6.286;2023-02-01T01:49:09;25.60;25.60;14.40
51320;PMS5003;38732;49.556;6.286;2023-02-01T01:51:42;26.60;21.00;12.20
51320;PMS5003;38732;49.556;6.286;2023-02-01T01:54:24;23.60;19.60;11.00
51320;PMS5003;38732;49.556;6.286;2023-02-01T01:57:04;25.00;22.80;11.60
51320;PMS5003;38732;49.556;6.286;2023-02-01T01:59:37;21.20;18.40;9.00
51320;PMS5003;38732;49.556;6.286;2023-02-01T02:02:08;36.20;25.20;14.60
51320;PMS5003;38732;49.556;6.286;2023-02-01T02:04:37;22.80;22.40;12.60
51320;PMS5003;38732;49.556;6.286;2023-02-01T02:07:10;36.75;29.50;18.50
51320;PMS5003;38732;49.556;6.286;2023-02-01T02:09:42;15.20;15.20;11.00
51320;PMS5003;38732;49.556;6.286;2023-02-01T02:12:10;27.75;22.25;12.50
51320;PMS5003;38732;49.556;6.286;2023-02-01T02:14:38;28.50;23.00;11.50
51320;PMS5003;38732;49.556;6.286;2023-02-01T02:28:17;28.00;23.00;15.40
51320;PMS5003;38732;49.556;6.286;2023-02-01T02:36:37;29.40;25.00;16.60
51320;PMS5003;38732;49.556;6.286;2023-02-01T02:39:08;24.40;23.00;14.00
51320;PMS5003;38732;49.556;6.286;2023-02-01T02:42:05;24.80;24.80;13.20
51320;PMS5003;38732;49.556;6.286;2023-02-01T02:47:57;23.60;16.80;8.00
51320;PMS5003;38732;49.556;6.286;2023-02-01T02:50:42;19.60;16.80;11.00
51320;PMS5003;38732;49.556;6.286;2023-02-01T02:53:18;31.00;23.40;13.80
51320;PMS5003;38732;49.556;6.286;2023-02-01T02:55:51;21.00;19.00;11.40
51320;PMS5003;38732;49.556;6.286;2023-02-01T02:58:20;25.00;23.00;13.00
51320;PMS5003;38732;49.556;6.286;2023-02-01T03:00:49;23.50;19.00;14.50
51320;PMS5003;38732;49.556;6.286;2023-02-01T03:03:19;29.60;23.60;14.40
51320;PMS5003;38732;49.556;6.286;2023-02-01T03:05:47;27.25;20.75;12.00
51320;PMS5003;38732;49.556;6.286;2023-02-01T03:11:05;26.40;23.60;14.20
51320;PMS5003;38732;49.556;6.286;2023-02-01T03:16:43;26.20;23.80;13.00
51320;PMS5003;38732;49.556;6.286;2023-02-01T03:19:22;21.60;19.80;13.00
51320;PMS5003;38732;49.556;6.286;2023-02-01T03:21:57;26.80;21.40;12.80
51320;PMS5003;38732;49.556;6.286;2023-02-01T03:29:57;22.80;17.00;8.00
51320;PMS5003;38732;49.556;6.286;2023-02-01T03:32:44;22.80;21.40;12.20
51320;PMS5003;38732;49.556;6.286;2023-02-01T03:35:15;26.80;24.80;15.80
51320;PMS5003;38732;49.556;6.286;2023-02-01T03:37:44;22.75;20.50;10.25
51320;PMS5003;38732;49.556;6.286;2023-02-01T03:40:13;32.50;27.50;16.00
51320;PMS5003;38732;49.556;6.286;2023-02-01T03:42:48;30.20;24.80;13.80
51320;PMS5003;38732;49.556;6.286;2023-02-01T03:45:33;31.80;28.40;15.20
51320;PMS5003;38732;49.556;6.286;2023-02-01T03:48:04;30.60;25.20;16.00
51320;PMS5003;38732;49.556;6.286;2023-02-01T03:50:35;30.20;26.60;15.80
51320;PMS5003;38732;49.556;6.286;2023-02-01T03:53:09;36.20;26.60;15.20
51320;PMS5003;38732;49.556;6.286;2023-02-01T03:55:41;24.40;24.40;15.40
51320;PMS5003;38732;49.556;6.286;2023-02-01T03:58:14;32.75;29.75;19.00
51320;PMS5003;38732;49.556;6.286;2023-02-01T04:00:47;30.40;26.00;14.60
51320;PMS5003;38732;49.556;6.286;2023-02-01T04:03:19;39.40;34.80;16.80
51320;PMS5003;38732;49.556;6.286;2023-02-01T04:05:48;28.50;23.25;15.00
51320;PMS5003;38732;49.556;6.286;2023-02-01T04:08:18;25.40;24.00;12.60
51320;PMS5003;38732;49.556;6.286;2023-02-01T04:10:47;20.80;19.20;12.20
51320;PMS5003;38732;49.556;6.286;2023-02-01T04:13:16;20.00;19.75;11.00
51320;PMS5003;38732;49.556;6.286;2023-02-01T04:15:44;32.50;27.25;15.25
51320;PMS5003;38732;49.556;6.286;2023-02-01T04:18:12;21.50;19.00;14.00
51320;PMS5003;38732;49.556;6.286;2023-02-01T04:20:41;27.00;23.75;13.50
51320;PMS5003;38732;49.556;6.286;2023-02-01T04:23:10;25.80;18.60;10.40
51320;PMS5003;38732;49.556;6.286;2023-02-01T04:25:38;28.50;23.50;15.50
51320;PMS5003;38732;49.556;6.286;2023-02-01T04:28:06;23.75;23.25;15.00
51320;PMS5003;38732;49.556;6.286;2023-02-01T04:30:35;30.50;25.50;17.00
51320;PMS5003;38732;49.556;6.286;2023-02-01T04:33:03;21.50;20.25;10.75
51320;PMS5003;38732;49.556;6.286;2023-02-01T04:35:31;28.25;23.00;15.50
51320;PMS5003;38732;49.556;6.286;2023-02-01T04:38:00;30.50;23.75;15.75
51320;PMS5003;38732;49.556;6.286;2023-02-01T04:40:28;28.25;24.00;15.25
51320;PMS5003;38732;49.556;6.286;2023-02-01T04:42:56;24.50;24.00;14.25
51320;PMS5003;38732;49.556;6.286;2023-02-01T04:45:24;31.00;26.25;15.75
51320;PMS5003;38732;49.556;6.286;2023-02-01T04:47:52;25.00;21.00;12.25
51320;PMS5003;38732;49.556;6.286;2023-02-01T04:50:21;20.00;18.75;9.75
51320;PMS5003;38732;49.556;6.286;2023-02-01T04:52:49;26.25;16.75;9.50
51320;PMS5003;38732;49.556;6.286;2023-02-01T04:55:17;24.75;19.25;13.00
51320;PMS5003;38732;49.556;6.286;2023-02-01T04:57:46;15.50;15.50;10.00
51320;PMS5003;38732;49.556;6.286;2023-02-01T05:00:14;33.25;23.50;12.25
51320;PMS5003;38732;49.556;6.286;2023-02-01T05:02:42;27.75;22.50;14.50
51320;PMS5003;38732;49.556;6.286;2023-02-01T05:05:11;23.00;20.50;13.00
51320;PMS5003;38732;49.556;6.286;2023-02-01T05:07:39;20.00;19.00;12.25
51320;PMS5003;38732;49.556;6.286;2023-02-01T05:10:07;23.25;19.75;12.00
51320;PMS5003;38732;49.556;6.286;2023-02-01T05:12:36;23.25;20.50;13.50
51320;PMS5003;38732;49.556;6.286;2023-02-01T05:15:04;24.00;22.25;12.50
51320;PMS5003;38732;49.556;6.286;2023-02-01T05:17:33;24.25;21.25;11.75
51320;PMS5003;38732;49.556;6.286;2023-02-01T05:20:01;19.25;16.50;9.00
51320;PMS5003;38732;49.556;6.286;2023-02-01T05:22:30;22.75;16.00;10.00
51320;PMS5003;38732;49.556;6.286;2023-02-01T05:24:58;19.25;19.25;10.00
51320;PMS5003;38732;49.556;6.286;2023-02-01T05:27:28;20.00;16.50;9.25
51320;PMS5003;38732;49.556;6.286;2023-02-01T05:29:57;20.80;20.80;9.20
51320;PMS5003;38732;49.556;6.286;2023-02-01T05:32:25;23.75;20.00;12.25
51320;PMS5003;38732;49.556;6.286;2023-02-01T05:34:53;30.50;21.50;12.75
51320;PMS5003;38732;49.556;6.286;2023-02-01T05:37:22;22.25;16.75;10.00
51320;PMS5003;38732;49.556;6.286;2023-02-01T05:39:50;16.25;12.00;6.00
51320;PMS5003;38732;49.556;6.286;2023-02-01T05:42:18;17.50;15.00;8.00
51320;PMS5003;38732;49.556;6.286;2023-02-01T05:44:46;16.50;16.25;10.50
51320;PMS5003;38732;49.556;6.286;2023-02-01T05:47:15;23.50;17.50;11.50
51320;PMS5003;38732;49.556;6.286;2023-02-01T05:49:43;19.75;15.75;8.50
51320;PMS5003;38732;49.556;6.286;2023-02-01T05:52:11;15.50;14.00;9.00
51320;PMS5003;38732;49.556;6.286;2023-02-01T05:54:39;21.00;18.50;12.00
51320;PMS5003;38732;49.556;6.286;2023-02-01T05:57:07;19.00;17.25;9.00
51320;PMS5003;38732;49.556;6.286;2023-02-01T05:59:36;22.00;17.00;10.50
51320;PMS5003;38732;49.556;6.286;2023-02-01T06:02:04;15.75;13.00;8.00
51320;PMS5003;38732;49.556;6.286;2023-02-01T06:04:32;15.00;14.50;9.00
51320;PMS5003;38732;49.556;6.286;2023-02-01T06:07:01;21.50;16.50;9.00
51320;PMS5003;38732;49.556;6.286;2023-02-01T06:09:30;19.20;16.60;9.20
51320;PMS5003;38732;49.556;6.286;2023-02-01T06:11:58;15.75;13.75;8.00
51320;PMS5003;38732;49.556;6.286;2023-02-01T06:14:26;18.00;15.25;8.00
51320;PMS5003;38732;49.556;6.286;2023-02-01T06:16:55;19.00;16.00;8.50
51320;PMS5003;38732;49.556;6.286;2023-02-01T06:19:23;18.25;14.50;8.00
51320;PMS5003;38732;49.556;6.286;2023-02-01T06:21:51;13.50;12.25;8.00
51320;PMS5003;38732;49.556;6.286;2023-02-01T06:24:21;13.00;12.00;6.00
51320;PMS5003;38732;49.556;6.286;2023-02-01T06:26:49;19.75;17.75;9.50
51320;PMS5003;38732;49.556;6.286;2023-02-01T06:29:17;13.00;12.75;8.00
51320;PMS5003;38732;49.556;6.286;2023-02-01T06:31:45;17.50;13.00;7.50
51320;PMS5003;38732;49.556;6.286;2023-02-01T06:34:14;17.25;11.75;5.00
51320;PMS5003;38732;49.556;6.286;2023-02-01T06:36:42;17.25;12.75;6.50
51320;PMS5003;38732;49.556;6.286;2023-02-01T06:39:10;14.00;9.00;5.25
51320;PMS5003;38732;49.556;6.286;2023-02-01T06:41:39;15.25;12.00;5.75
51320;PMS5003;38732;49.556;6.286;2023-02-01T06:44:07;15.75;8.25;5.50
51320;PMS5003;38732;49.556;6.286;2023-02-01T06:46:35;15.00;9.25;6.00
51320;PMS5003;38732;49.556;6.286;2023-02-01T06:49:03;11.25;10.25;5.00
51320;PMS5003;38732;49.556;6.286;2023-02-01T06:51:31;9.00;5.75;4.00
51320;PMS5003;38732;49.556;6.286;2023-02-01T06:54:00;8.75;6.75;2.50
51320;PMS5003;38732;49.556;6.286;2023-02-01T06:56:28;9.50;8.25;5.00
51320;PMS5003;38732;49.556;6.286;2023-02-01T06:58:56;11.25;9.50;5.00
51320;PMS5003;38732;49.556;6.286;2023-02-01T07:01:24;8.25;5.00;4.00
51320;PMS5003;38732;49.556;6.286;2023-02-01T07:03:53;14.75;9.00;5.00
51320;PMS5003;38732;49.556;6.286;2023-02-01T07:06:21;12.25;9.00;5.25
51320;PMS5003;38732;49.556;6.286;2023-02-01T07:08:49;12.00;9.50;5.00
51320;PMS5003;38732;49.556;6.286;2023-02-01T07:11:18;10.00;8.50;4.75
51320;PMS5003;38732;49.556;6.286;2023-02-01T07:13:46;9.40;8.80;4.80
51320;PMS5003;38732;49.556;6.286;2023-02-01T07:16:16;13.00;10.00;4.00
51320;PMS5003;38732;49.556;6.286;2023-02-01T07:18:46;10.60;9.00;5.00
51320;PMS5003;38732;49.556;6.286;2023-02-01T07:21:15;8.50;6.50;4.00
51320;PMS5003;38732;49.556;6.286;2023-02-01T07:23:43;13.25;8.50;4.00
51320;PMS5003;38732;49.556;6.286;2023-02-01T07:26:12;6.00;6.00;3.00
51320;PMS5003;38732;49.556;6.286;2023-02-01T07:28:41;11.40;9.40;5.00
51320;PMS5003;38732;49.556;6.286;2023-02-01T07:31:14;8.50;7.50;4.25
51320;PMS5003;38732;49.556;6.286;2023-02-01T07:33:43;8.40;7.40;5.00
51320;PMS5003;38732;49.556;6.286;2023-02-01T07:36:16;12.00;9.00;5.00
51320;PMS5003;38732;49.556;6.286;2023-02-01T07:38:44;15.80;10.20;6.20
51320;PMS5003;38732;49.556;6.286;2023-02-01T07:41:13;11.20;8.00;4.00
51320;PMS5003;38732;49.556;6.286;2023-02-01T07:43:42;11.75;9.00;5.00
51320;PMS5003;38732;49.556;6.286;2023-02-01T07:46:10;14.25;11.75;5.50
51320;PMS5003;38732;49.556;6.286;2023-02-01T07:48:39;11.75;11.50;7.00
51320;PMS5003;38732;49.556;6.286;2023-02-01T07:51:15;6.75;4.25;4.00
51320;PMS5003;38732;49.556;6.286;2023-02-01T07:53:44;13.20;10.20;6.20
51320;PMS5003;38732;49.556;6.286;2023-02-01T07:58:42;13.00;11.20;5.00
51320;PMS5003;38732;49.556;6.286;2023-02-01T08:01:14;13.75;10.50;5.50
51320;PMS5003;38732;49.556;6.286;2023-02-01T08:03:44;10.60;8.00;5.80
51320;PMS5003;38732;49.556;6.286;2023-02-01T08:06:12;15.75;8.75;5.00
51320;PMS5003;38732;49.556;6.286;2023-02-01T08:08:41;7.75;7.00;4.25
51320;PMS5003;38732;49.556;6.286;2023-02-01T08:11:09;7.00;4.75;3.00
51320;PMS5003;38732;49.556;6.286;2023-02-01T08:13:37;16.25;11.50;4.00
51320;PMS5003;38732;49.556;6.286;2023-02-01T08:16:06;9.50;9.50;4.75
51320;PMS5003;38732;49.556;6.286;2023-02-01T08:18:38;10.80;9.00;4.00
51320;PMS5003;38732;49.556;6.286;2023-02-01T08:21:08;15.00;7.60;3.60
51320;PMS5003;38732;49.556;6.286;2023-02-01T08:23:39;9.80;8.00;4.60
51320;PMS5003;38732;49.556;6.286;2023-02-01T08:26:12;9.40;8.20;4.00
51320;PMS5003;38732;49.556;6.286;2023-02-01T08:28:52;12.80;9.00;5.60
51320;PMS5003;38732;49.556;6.286;2023-02-01T08:31:23;13.00;8.60;6.00
51320;PMS5003;38732;49.556;6.286;2023-02-01T08:33:56;10.60;7.40;4.60
51320;PMS5003;38732;49.556;6.286;2023-02-01T08:36:27;19.00;13.20;7.80
51320;PMS5003;38732;49.556;6.286;2023-02-01T08:38:57;14.20;10.00;5.00
51320;PMS5003;38732;49.556;6.286;2023-02-01T08:41:27;12.75;9.00;5.00
51320;PMS5003;38732;49.556;6.286;2023-02-01T08:43:57;19.40;11.80;6.00
51320;PMS5003;38732;49.556;6.286;2023-02-01T08:46:25;13.25;13.25;7.50
51320;PMS5003;38732;49.556;6.286;2023-02-01T08:48:54;13.50;11.50;6.75
51320;PMS5003;38732;49.556;6.286;2023-02-01T08:51:22;9.75;9.00;5.00
51320;PMS5003;38732;49.556;6.286;2023-02-01T08:53:51;12.75;10.00;7.00
51320;PMS5003;38732;49.556;6.286;2023-02-01T08:56:19;11.00;8.00;5.00
51320;PMS5003;38732;49.556;6.286;2023-02-01T08:58:48;11.00;8.00;5.00
51320;PMS5003;38732;49.556;6.286;2023-02-01T09:01:16;16.50;12.50;6.00
51320;PMS5003;38732;49.556;6.286;2023-02-01T09:03:45;13.50;11.75;6.00
51320;PMS5003;38732;49.556;6.286;2023-02-01T09:06:13;13.00;11.75;5.00
51320;PMS5003;38732;49.556;6.286;2023-02-01T09:08:43;15.60;11.40;6.20
51320;PMS5003;38732;49.556;6.286;2023-02-01T09:11:13;11.40;9.20;6.40
51320;PMS5003;38732;49.556;6.286;2023-02-01T09:13:43;11.20;9.80;6.00
51320;PMS5003;38732;49.556;6.286;2023-02-01T09:16:11;13.25;9.25;6.00
51320;PMS5003;38732;49.556;6.286;2023-02-01T09:18:40;13.75;12.75;8.00
51320;PMS5003;38732;49.556;6.286;2023-02-01T09:21:08;16.75;14.00;8.25
51320;PMS5003;38732;49.556;6.286;2023-02-01T09:23:36;12.00;9.00;6.00
51320;PMS5003;38732;49.556;6.286;2023-02-01T09:26:05;12.75;9.75;8.00
51320;PMS5003;38732;49.556;6.286;2023-02-01T09:28:33;14.50;11.00;5.25
51320;PMS5003;38732;49.556;6.286;2023-02-01T09:31:01;11.25;9.50;6.00
51320;PMS5003;38732;49.556;6.286;2023-02-01T09:33:29;13.00;10.50;5.00
51320;PMS5003;38732;49.556;6.286;2023-02-01T09:35:58;12.25;9.75;5.75
51320;PMS5003;38732;49.556;6.286;2023-02-01T09:38:29;14.60;9.20;5.60
51320;PMS5003;38732;49.556;6.286;2023-02-01T09:40:58;11.20;9.60;6.00
51320;PMS5003;38732;49.556;6.286;2023-02-01T09:43:29;9.40;8.20;4.60
51320;PMS5003;38732;49.556;6.286;2023-02-01T09:49:00;11.20;9.00;5.60
51320;PMS5003;38732;49.556;6.286;2023-02-01T09:51:42;14.00;9.60;5.00
51320;PMS5003;38732;49.556;6.286;2023-02-01T09:54:49;15.40;12.00;8.00
51320;PMS5003;38732;49.556;6.286;2023-02-01T09:57:22;13.80;11.80;6.00
51320;PMS5003;38732;49.556;6.286;2023-02-01T09:59:57;16.20;15.20;9.00
51320;PMS5003;38732;49.556;6.286;2023-02-01T10:02:30;17.00;10.20;4.60
51320;PMS5003;38732;49.556;6.286;2023-02-01T10:05:05;14.60;10.60;6.00
51320;PMS5003;38732;49.556;6.286;2023-02-01T10:10:38;11.80;9.60;6.00
51320;PMS5003;38732;49.556;6.286;2023-02-01T10:15:52;15.40;12.40;6.00
51320;PMS5003;38732;49.556;6.286;2023-02-01T10:21:40;15.60;8.60;3.60
51320;PMS5003;38732;49.556;6.286;2023-02-01T10:24:21;12.80;9.20;5.00
51320;PMS5003;38732;49.556;6.286;2023-02-01T10:27:12;11.40;8.20;4.00
51320;PMS5003;38732;49.556;6.286;2023-02-01T10:29:43;11.00;10.20;6.00
51320;PMS5003;38732;49.556;6.286;2023-02-01T10:32:17;10.00;8.60;5.40
51320;PMS5003;38732;49.556;6.286;2023-02-01T10:34:51;8.80;7.60;4.60
51320;PMS5003;38732;49.556;6.286;2023-02-01T10:37:32;12.20;8.60;5.00
51320;PMS5003;38732;49.556;6.286;2023-02-01T10:40:23;11.20;8.00;5.00
51320;PMS5003;38732;49.556;6.286;2023-02-01T10:42:57;12.20;6.00;4.00
51320;PMS5003;38732;49.556;6.286;2023-02-01T10:45:28;11.00;8.80;5.60
51320;PMS5003;38732;49.556;6.286;2023-02-01T10:47:58;11.40;9.40;6.00
51320;PMS5003;38732;49.556;6.286;2023-02-01T10:53:18;8.40;8.00;5.00
51320;PMS5003;38732;49.556;6.286;2023-02-01T10:56:08;12.00;8.40;5.40
51320;PMS5003;38732;49.556;6.286;2023-02-01T10:58:45;10.40;7.60;4.60
51320;PMS5003;38732;49.556;6.286;2023-02-01T11:01:19;10.60;10.00;4.80
51320;PMS5003;38732;49.556;6.286;2023-02-01T11:03:58;10.00;8.40;4.80
51320;PMS5003;38732;49.556;6.286;2023-02-01T11:06:33;7.60;7.60;4.40
51320;PMS5003;38732;49.556;6.286;2023-02-01T11:14:15;13.00;9.40;5.00
51320;PMS5003;38732;49.556;6.286;2023-02-01T11:16:50;13.60;9.20;6.00
51320;PMS5003;38732;49.556;6.286;2023-02-01T11:19:21;11.60;6.00;3.40
51320;PMS5003;38732;49.556;6.286;2023-02-01T11:21:53;13.50;9.50;6.50
51320;PMS5003;38732;49.556;6.286;2023-02-01T11:24:31;17.80;12.80;6.00
51320;PMS5003;38732;49.556;6.286;2023-02-01T11:27:02;13.60;11.60;6.00
51320;PMS5003;38732;49.556;6.286;2023-02-01T11:29:36;13.60;10.40;7.20
51320;PMS5003;38732;49.556;6.286;2023-02-01T11:32:09;11.20;8.00;5.00
51320;PMS5003;38732;49.556;6.286;2023-02-01T11:34:43;9.20;6.00;3.00
51320;PMS5003;38732;49.556;6.286;2023-02-01T11:37:23;9.80;6.00;5.00
51320;PMS5003;38732;49.556;6.286;2023-02-01T11:39:56;9.80;7.20;5.00
51320;PMS5003;38732;49.556;6.286;2023-02-01T11:42:27;6.40;6.00;3.00
51320;PMS5003;38732;49.556;6.286;2023-02-01T11:45:19;9.20;8.60;5.60
51320;PMS5003;38732;49.556;6.286;2023-02-01T11:47:52;10.00;8.00;6.00
51320;PMS5003;38732;49.556;6.286;2023-02-01T11:50:25;10.20;10.20;7.40
51320;PMS5003;38732;49.556;6.286;2023-02-01T11:58:39;7.40;7.20;5.00
51320;PMS5003;38732;49.556;6.286;2023-02-01T12:01:30;9.40;8.60;5.00
51320;PMS5003;38732;49.556;6.286;2023-02-01T12:19:10;8.20;8.20;5.80
51320;PMS5003;38732;49.556;6.286;2023-02-01T12:21:57;10.00;6.40;5.00
51320;PMS5003;38732;49.556;6.286;2023-02-01T12:29:51;12.80;6.20;4.20
51320;PMS5003;38732;49.556;6.286;2023-02-01T12:35:36;15.20;8.00;3.80
51320;PMS5003;38732;49.556;6.286;2023-02-01T12:38:21;6.20;5.00;3.00
51320;PMS5003;38732;49.556;6.286;2023-02-01T12:43:38;10.40;10.00;5.00
51320;PMS5003;38732;49.556;6.286;2023-02-01T12:46:13;16.00;10.00;5.00
51320;PMS5003;38732;49.556;6.286;2023-02-01T12:51:15;9.40;7.00;5.20
51320;PMS5003;38732;49.556;6.286;2023-02-01T12:53:53;14.00;8.60;6.00
51320;PMS5003;38732;49.556;6.286;2023-02-01T12:59:09;10.00;10.00;6.20
51320;PMS5003;38732;49.556;6.286;2023-02-01T13:01:48;12.20;9.60;6.00
51320;PMS5003;38732;49.556;6.286;2023-02-01T13:04:31;8.00;7.60;3.20
51320;PMS5003;38732;49.556;6.286;2023-02-01T13:07:09;11.00;10.00;6.40
51320;PMS5003;38732;49.556;6.286;2023-02-01T13:09:47;18.20;9.00;5.80
51320;PMS5003;38732;49.556;6.286;2023-02-01T13:12:27;9.40;9.40;6.20
51320;PMS5003;38732;49.556;6.286;2023-02-01T13:17:38;8.80;6.00;3.00
51320;PMS5003;38732;49.556;6.286;2023-02-01T13:23:51;6.60;6.60;4.60
51320;PMS5003;38732;49.556;6.286;2023-02-01T13:26:05;13.00;8.60;5.00
51320;PMS5003;38732;49.556;6.286;2023-02-01T13:28:50;13.00;10.00;5.00
51320;PMS5003;38732;49.556;6.286;2023-02-01T13:34:32;12.20;8.60;4.60
51320;PMS5003;38732;49.556;6.286;2023-02-01T13:40:05;8.60;7.80;3.00
51320;PMS5003;38732;49.556;6.286;2023-02-01T13:43:21;5.00;1.40;1.00
51320;PMS5003;38732;49.556;6.286;2023-02-01T13:45:51;16.00;7.00;3.00
51320;PMS5003;38732;49.556;6.286;2023-02-01T13:48:29;2.60;2.20;1.00
51320;PMS5003;38732;49.556;6.286;2023-02-01T13:51:06;3.40;3.40;3.00
51320;PMS5003;38732;49.556;6.286;2023-02-01T13:53:36;5.40;3.80;2.00
51320;PMS5003;38732;49.556;6.286;2023-02-01T13:56:13;2.60;2.60;2.00
51320;PMS5003;38732;49.556;6.286;2023-02-01T13:58:45;6.00;4.40;2.00
51320;PMS5003;38732;49.556;6.286;2023-02-01T14:03:53;9.60;5.80;3.00
51320;PMS5003;38732;49.556;6.286;2023-02-01T14:11:41;5.80;3.00;2.40
51320;PMS5003;38732;49.556;6.286;2023-02-01T14:16:43;5.60;3.00;1.60
51320;PMS5003;38732;49.556;6.286;2023-02-01T14:19:31;5.00;5.00;2.00
51320;PMS5003;38732;49.556;6.286;2023-02-01T14:22:31;6.60;6.20;2.80
51320;PMS5003;38732;49.556;6.286;2023-02-01T14:24:56;5.40;5.00;2.20
51320;PMS5003;38732;49.556;6.286;2023-02-01T14:27:29;5.80;5.80;2.00
51320;PMS5003;38732;49.556;6.286;2023-02-01T14:30:06;10.00;5.80;2.60
51320;PMS5003;38732;49.556;6.286;2023-02-01T14:32:42;2.80;2.80;2.40
51320;PMS5003;38732;49.556;6.286;2023-02-01T14:38:08;8.80;5.60;3.00
51320;PMS5003;38732;49.556;6.286;2023-02-01T14:40:38;6.00;4.60;2.40
51320;PMS5003;38732;49.556;6.286;2023-02-01T14:43:07;6.50;5.00;2.00
51320;PMS5003;38732;49.556;6.286;2023-02-01T14:50:36;10.40;6.00;2.00
51320;PMS5003;38732;49.556;6.286;2023-02-01T14:55:47;4.00;3.40;2.00
51320;PMS5003;38732;49.556;6.286;2023-02-01T14:58:42;5.00;3.00;2.00
51320;PMS5003;38732;49.556;6.286;2023-02-01T15:03:55;6.00;3.00;1.00
51320;PMS5003;38732;49.556;6.286;2023-02-01T15:09:07;10.20;6.00;3.00
51320;PMS5003;38732;49.556;6.286;2023-02-01T15:14:39;5.00;3.00;2.00
51320;PMS5003;38732;49.556;6.286;2023-02-01T15:17:48;5.60;5.20;2.00
51320;PMS5003;38732;49.556;6.286;2023-02-01T15:20:23;10.00;6.00;3.00
51320;PMS5003;38732;49.556;6.286;2023-02-01T15:23:00;7.40;7.00;2.40
51320;PMS5003;38732;49.556;6.286;2023-02-01T15:25:30;5.60;5.60;3.40
51320;PMS5003;38732;49.556;6.286;2023-02-01T15:28:03;9.20;7.40;3.00
51320;PMS5003;38732;49.556;6.286;2023-02-01T15:30:33;5.60;5.60;2.40
51320;PMS5003;38732;49.556;6.286;2023-02-01T15:35:43;9.80;5.60;2.80
51320;PMS5003;38732;49.556;6.286;2023-02-01T15:40:57;10.40;7.20;4.20
51320;PMS5003;38732;49.556;6.286;2023-02-01T15:43:29;8.00;8.00;3.00
51320;PMS5003;38732;49.556;6.286;2023-02-01T15:46:01;8.80;6.00;4.80
51320;PMS5003;38732;49.556;6.286;2023-02-01T15:48:36;9.00;5.60;3.40
51320;PMS5003;38732;49.556;6.286;2023-02-01T15:51:11;8.80;6.60;2.80
51320;PMS5003;38732;49.556;6.286;2023-02-01T15:53:46;8.60;6.00;2.80
51320;PMS5003;38732;49.556;6.286;2023-02-01T15:56:23;7.20;5.80;3.40
51320;PMS5003;38732;49.556;6.286;2023-02-01T15:58:57;9.20;4.60;2.00
51320;PMS5003;38732;49.556;6.286;2023-02-01T16:01:27;7.20;7.20;3.20
51320;PMS5003;38732;49.556;6.286;2023-02-01T16:04:03;1.00;1.00;0.00
51320;PMS5003;38732;49.556;6.286;2023-02-01T16:06:45;8.60;6.60;3.20
51320;PMS5003;38732;49.556;6.286;2023-02-01T16:09:16;10.40;6.00;4.00
51320;PMS5003;38732;49.556;6.286;2023-02-01T16:11:48;6.00;5.80;4.00
51320;PMS5003;38732;49.556;6.286;2023-02-01T16:14:23;6.40;5.00;2.00
51320;PMS5003;38732;49.556;6.286;2023-02-01T16:16:52;9.40;8.80;5.40
51320;PMS5003;38732;49.556;6.286;2023-02-01T16:19:22;6.60;6.20;3.00
51320;PMS5003;38732;49.556;6.286;2023-02-01T16:21:50;5.00;4.25;2.00
51320;PMS5003;38732;49.556;6.286;2023-02-01T16:24:18;12.00;8.25;6.00
51320;PMS5003;38732;49.556;6.286;2023-02-01T16:26:46;7.75;6.50;3.50
51320;PMS5003;38732;49.556;6.286;2023-02-01T16:29:15;6.50;5.00;2.00
51320;PMS5003;38732;49.556;6.286;2023-02-01T16:31:43;8.75;5.00;2.00
51320;PMS5003;38732;49.556;6.286;2023-02-01T16:34:13;8.25;6.00;4.25
51320;PMS5003;38732;49.556;6.286;2023-02-01T16:36:43;7.80;7.20;4.40
51320;PMS5003;38732;49.556;6.286;2023-02-01T16:39:12;8.00;6.80;4.00
51320;PMS5003;38732;49.556;6.286;2023-02-01T16:41:41;9.20;8.20;4.00
51320;PMS5003;38732;49.556;6.286;2023-02-01T16:44:09;6.75;6.50;4.00
51320;PMS5003;38732;49.556;6.286;2023-02-01T16:46:42;10.00;8.25;4.00